Time;durP1;ratioP1;P1;durP2;ratioP2;P2;SDS_P1;SDS_P2;PMS_P1;PMS_P2;Temp;Humidity;BMP_temperature;BMP_pressure;BME280_temperature;BME280_humidity;BME280_pressure;Samples;Min_cycle;Max_cycle;Signal;HPM_P1;HPM_P2
2023/09/26 00:02:06;;;;;;;12.38;7.88;;;;;;;;;;5051760;28;20043;-39
2023/09/26 00:04:31;;;;;;;10.37;7.57;;;;;;;;;;5053986;28;21211;-38
2023/09/26 00:06:59;;;;;;;10.65;7.38;;;;;;;;;;5054264;28;20299;-38
2023/09/26 00:09:26;;;;;;;14.05;7.32;;;;;;;;;;5051587;28;20048;-39
2023/09/26 00:11:52;;;;;;;10.30;6.43;;;;;;;;;;5057115;28;20033;-38
2023/09/26 00:14:18;;;;;;;12.32;7.97;;;;;;;;;;5052894;28;20679;-38
2023/09/26 00:16:43;;;;;;;11.73;6.82;;;;;;;;;;5053595;28;20039;-39
2023/09/26 00:19:08;;;;;;;10.57;7.43;;;;;;;;;;5048924;28;20049;-40
2023/09/26 00:21:34;;;;;;;10.30;7.50;;;;;;;;;;5050990;28;20292;-38
2023/09/26 00:23:59;;;;;;;12.53;7.13;;;;;;;;;;5050254;28;20340;-38
2023/09/26 00:26:25;;;;;;;12.88;7.60;;;;;;;;;;5036124;28;20283;-38
2023/09/26 00:28:51;;;;;;;11.23;7.22;;;;;;;;;;5051933;28;20539;-39
2023/09/26 00:31:17;;;;;;;14.30;7.18;;;;;;;;;;5053159;28;20036;-38
2023/09/26 00:33:42;;;;;;;10.43;7.68;;;;;;;;;;5050257;28;20031;-38
2023/09/26 00:36:08;;;;;;;9.68;6.80;;;;;;;;;;5045995;28;20013;-38
2023/09/26 00:38:34;;;;;;;12.52;7.50;;;;;;;;;;5050922;28;20100;-38
2023/09/26 00:40:59;;;;;;;10.52;7.10;;;;;;;;;;5053169;28;20105;-38
2023/09/26 00:43:24;;;;;;;12.25;6.93;;;;;;;;;;5049348;28;20029;-38
2023/09/26 00:45:51;;;;;;;9.07;6.53;;;;;;;;;;5052666;28;20051;-38
2023/09/26 00:48:16;;;;;;;13.60;7.90;;;;;;;;;;5054904;28;20335;-39
2023/09/26 00:50:43;;;;;;;12.73;7.50;;;;;;;;;;5050138;28;20029;-38
2023/09/26 00:53:08;;;;;;;13.32;8.18;;;;;;;;;;5049418;28;20391;-39
2023/09/26 00:55:34;;;;;;;9.90;6.75;;;;;;;;;;5050669;28;20523;-38
2023/09/26 00:58:00;;;;;;;13.73;7.97;;;;;;;;;;5056907;28;20145;-39
2023/09/26 01:00:26;;;;;;;11.70;7.40;;;;;;;;;;5050917;28;20024;-38
2023/09/26 01:02:52;;;;;;;10.52;7.35;;;;;;;;;;5054559;28;20041;-38
2023/09/26 01:05:17;;;;;;;12.93;7.30;;;;;;;;;;5046578;28;20121;-40
2023/09/26 01:07:42;;;;;;;9.52;6.70;;;;;;;;;;5050922;28;20095;-38
2023/09/26 01:10:08;;;;;;;11.00;6.73;;;;;;;;;;5050837;28;20115;-39
2023/09/26 01:12:33;;;;;;;11.88;6.72;;;;;;;;;;5054332;28;20282;-38
2023/09/26 01:14:59;;;;;;;12.10;7.00;;;;;;;;;;5047972;28;20031;-38
2023/09/26 01:17:24;;;;;;;10.57;6.40;;;;;;;;;;5048570;28;20395;-38
2023/09/26 01:19:49;;;;;;;9.47;6.03;;;;;;;;;;5045738;28;20178;-38
2023/09/26 01:22:16;;;;;;;10.23;7.90;;;;;;;;;;5047942;28;20024;-38
2023/09/26 01:24:41;;;;;;;13.38;7.40;;;;;;;;;;5057593;28;20279;-39
2023/09/26 01:27:06;;;;;;;12.15;6.15;;;;;;;;;;5051745;28;20044;-38
2023/09/26 01:29:32;;;;;;;11.13;6.00;;;;;;;;;;5054306;28;20024;-38
2023/09/26 01:31:57;;;;;;;9.63;6.93;;;;;;;;;;5056062;28;20318;-38
2023/09/26 01:34:22;;;;;;;11.80;6.60;;;;;;;;;;5055572;28;20287;-38
2023/09/26 01:36:47;;;;;;;11.70;6.87;;;;;;;;;;5055204;28;20452;-38
2023/09/26 01:39:13;;;;;;;10.93;6.67;;;;;;;;;;5056469;28;20378;-39
2023/09/26 01:41:38;;;;;;;13.00;7.03;;;;;;;;;;5054705;28;20037;-39
2023/09/26 01:44:05;;;;;;;13.48;7.80;;;;;;;;;;5052496;28;20036;-39
2023/09/26 01:46:30;;;;;;;11.57;7.00;;;;;;;;;;5053346;28;20025;-38
2023/09/26 01:48:55;;;;;;;10.73;7.13;;;;;;;;;;5057975;28;20029;-38
2023/09/26 01:51:21;;;;;;;11.37;7.00;;;;;;;;;;5057677;28;20372;-38
2023/09/26 01:53:46;;;;;;;10.82;7.32;;;;;;;;;;5049375;28;20121;-38
2023/09/26 01:56:12;;;;;;;11.23;7.90;;;;;;;;;;5054535;28;20028;-39
2023/09/26 01:58:37;;;;;;;13.15;8.35;;;;;;;;;;5056532;28;20078;-38
2023/09/26 02:01:02;;;;;;;12.88;8.02;;;;;;;;;;5055729;28;20031;-39
2023/09/26 02:03:27;;;;;;;10.25;7.30;;;;;;;;;;5057911;28;20035;-39
2023/09/26 02:05:56;;;;;;;12.33;7.60;;;;;;;;;;5052781;28;20059;-38
2023/09/26 02:08:21;;;;;;;14.68;8.43;;;;;;;;;;5056468;28;20293;-38
2023/09/26 02:10:46;;;;;;;11.87;7.93;;;;;;;;;;5053336;28;20048;-38
2023/09/26 02:13:11;;;;;;;14.00;7.23;;;;;;;;;;5060484;28;20279;-39
2023/09/26 02:15:37;;;;;;;10.30;7.60;;;;;;;;;;5062216;28;20283;-39
2023/09/26 02:18:02;;;;;;;10.65;7.13;;;;;;;;;;5064614;28;20293;-38
2023/09/26 02:20:28;;;;;;;13.40;8.75;;;;;;;;;;5061792;28;20021;-38
2023/09/26 02:22:53;;;;;;;14.57;8.68;;;;;;;;;;5052802;28;20036;-39
2023/09/26 02:25:19;;;;;;;13.43;9.07;;;;;;;;;;5053438;28;20031;-38
2023/09/26 02:27:45;;;;;;;12.52;8.65;;;;;;;;;;5058232;28;20301;-38
2023/09/26 02:30:11;;;;;;;14.00;8.40;;;;;;;;;;5053543;28;20032;-38
2023/09/26 02:32:36;;;;;;;13.55;8.80;;;;;;;;;;5049023;28;20111;-39
2023/09/26 02:35:02;;;;;;;14.35;8.15;;;;;;;;;;5055645;28;20027;-39
2023/09/26 02:37:28;;;;;;;14.32;8.85;;;;;;;;;;5060979;28;20025;-38
2023/09/26 02:39:53;;;;;;;24.00;16.50;;;;;;;;;;5059928;28;20534;-38
2023/09/26 02:42:18;;;;;;;80.35;46.90;;;;;;;;;;5053579;28;20735;-39
2023/09/26 02:44:43;;;;;;;68.77;38.03;;;;;;;;;;5052888;28;20071;-39
2023/09/26 02:47:09;;;;;;;20.60;13.10;;;;;;;;;;5054756;28;20390;-38
2023/09/26 02:49:34;;;;;;;14.70;9.20;;;;;;;;;;5057788;28;20533;-39
2023/09/26 02:51:59;;;;;;;14.93;9.05;;;;;;;;;;5058153;28;20283;-37
2023/09/26 02:54:28;;;;;;;10.75;5.43;;;;;;;;;;5056458;28;20038;-38
2023/09/26 02:56:53;;;;;;;13.35;7.85;;;;;;;;;;5062969;28;20093;-38
2023/09/26 02:59:18;;;;;;;13.02;8.10;;;;;;;;;;5059993;28;20028;-39
2023/09/26 03:01:44;;;;;;;14.07;10.37;;;;;;;;;;5059337;28;20033;-38
2023/09/26 03:04:09;;;;;;;15.00;9.17;;;;;;;;;;5057850;28;20408;-38
2023/09/26 03:06:34;;;;;;;21.17;12.13;;;;;;;;;;5059765;28;20029;-38
2023/09/26 03:08:59;;;;;;;35.60;20.25;;;;;;;;;;5058907;28;20085;-38
2023/09/26 03:11:25;;;;;;;17.63;10.33;;;;;;;;;;5060210;28;20021;-39
2023/09/26 03:13:50;;;;;;;12.20;9.00;;;;;;;;;;5058684;28;20277;-39
2023/09/26 03:16:16;;;;;;;11.67;8.13;;;;;;;;;;5056611;28;20479;-38
2023/09/26 03:18:41;;;;;;;14.77;8.55;;;;;;;;;;5042617;28;20112;-38
2023/09/26 03:21:07;;;;;;;13.07;8.25;;;;;;;;;;5060112;28;20089;-38
2023/09/26 03:23:32;;;;;;;11.13;8.50;;;;;;;;;;5061524;28;20097;-38
2023/09/26 03:25:58;;;;;;;13.95;8.80;;;;;;;;;;5056700;28;20039;-39
2023/09/26 03:28:23;;;;;;;13.18;8.35;;;;;;;;;;5055769;28;20028;-38
2023/09/26 03:30:48;;;;;;;11.50;7.60;;;;;;;;;;5055925;28;20032;-39
2023/09/26 03:33:14;;;;;;;13.30;8.23;;;;;;;;;;5052861;28;25797;-39
2023/09/26 03:35:39;;;;;;;13.30;8.52;;;;;;;;;;5054206;28;20155;-39
2023/09/26 03:38:04;;;;;;;13.27;8.87;;;;;;;;;;5056343;28;20037;-39
2023/09/26 03:40:30;;;;;;;10.65;8.07;;;;;;;;;;5049983;28;20059;-38
2023/09/26 03:42:55;;;;;;;11.00;7.60;;;;;;;;;;5053508;28;20104;-38
2023/09/26 03:45:21;;;;;;;13.70;8.90;;;;;;;;;;5054664;28;20044;-38
2023/09/26 03:47:46;;;;;;;14.32;8.85;;;;;;;;;;5058168;28;20295;-38
2023/09/26 03:50:11;;;;;;;15.65;8.98;;;;;;;;;;5054802;28;20908;-38
2023/09/26 03:52:37;;;;;;;12.00;8.57;;;;;;;;;;5052823;28;20055;-38
2023/09/26 03:55:02;;;;;;;7.90;5.23;;;;;;;;;;5054078;28;20274;-38
2023/09/26 03:57:31;;;;;;;13.52;8.52;;;;;;;;;;5059450;28;20294;-38
2023/09/26 03:59:56;;;;;;;12.82;8.07;;;;;;;;;;5054041;28;20025;-38
2023/09/26 04:02:21;;;;;;;11.63;8.47;;;;;;;;;;5056092;28;20493;-38
2023/09/26 04:04:47;;;;;;;12.52;8.65;;;;;;;;;;5041586;28;20279;-39
2023/09/26 04:07:12;;;;;;;10.90;7.80;;;;;;;;;;5059294;28;20056;-38
2023/09/26 04:09:37;;;;;;;11.55;8.50;;;;;;;;;;5058117;28;20316;-38
2023/09/26 04:12:03;;;;;;;12.45;7.65;;;;;;;;;;5060255;28;20021;-38
2023/09/26 04:14:28;;;;;;;11.35;8.70;;;;;;;;;;5062281;28;20071;-38
2023/09/26 04:16:54;;;;;;;13.07;8.97;;;;;;;;;;5043707;28;20036;-38
2023/09/26 04:19:19;;;;;;;11.17;7.33;;;;;;;;;;5062470;28;20279;-38
2023/09/26 04:21:45;;;;;;;11.85;8.35;;;;;;;;;;5060038;28;20771;-39
2023/09/26 04:24:10;;;;;;;12.48;8.80;;;;;;;;;;5062544;28;20557;-38
2023/09/26 04:26:35;;;;;;;12.55;8.98;;;;;;;;;;5058392;28;20056;-38
2023/09/26 04:29:01;;;;;;;12.17;8.57;;;;;;;;;;5063414;28;20032;-38
2023/09/26 04:31:26;;;;;;;12.02;9.00;;;;;;;;;;5061202;28;20289;-39
2023/09/26 04:33:52;;;;;;;10.73;7.90;;;;;;;;;;5061943;28;20033;-38
2023/09/26 04:36:17;;;;;;;18.03;8.37;;;;;;;;;;5054281;28;20362;-38
2023/09/26 04:38:43;;;;;;;15.73;8.82;;;;;;;;;;5051781;28;20064;-40
2023/09/26 04:41:08;;;;;;;11.65;8.35;;;;;;;;;;5051053;28;20021;-38
2023/09/26 04:43:33;;;;;;;16.93;11.00;;;;;;;;;;5057471;28;20472;-39
2023/09/26 04:45:59;;;;;;;14.50;9.20;;;;;;;;;;5054202;28;20275;-38
2023/09/26 04:48:24;;;;;;;16.38;9.70;;;;;;;;;;5059793;28;20107;-38
2023/09/26 04:50:50;;;;;;;14.52;9.52;;;;;;;;;;5065581;28;20035;-38
2023/09/26 04:53:15;;;;;;;15.63;8.70;;;;;;;;;;5061850;28;20095;-38
2023/09/26 04:55:41;;;;;;;12.75;8.95;;;;;;;;;;5061985;28;20271;-38
2023/09/26 04:58:06;;;;;;;14.20;8.35;;;;;;;;;;5061347;28;20385;-38
2023/09/26 05:00:32;;;;;;;12.63;8.20;;;;;;;;;;5061726;28;20044;-38
2023/09/26 05:02:57;;;;;;;14.02;8.13;;;;;;;;;;5057411;28;20034;-39
2023/09/26 05:05:24;;;;;;;12.37;9.30;;;;;;;;;;5059566;28;20032;-39
2023/09/26 05:07:49;;;;;;;13.40;8.23;;;;;;;;;;5063598;28;20278;-39
2023/09/26 05:10:15;;;;;;;13.73;8.32;;;;;;;;;;5060494;28;20513;-38
2023/09/26 05:12:40;;;;;;;16.48;9.38;;;;;;;;;;5061431;28;20020;-39
2023/09/26 05:15:07;;;;;;;11.90;9.50;;;;;;;;;;5057502;28;20036;-38
2023/09/26 05:17:32;;;;;;;13.00;8.77;;;;;;;;;;5061889;28;20482;-38
2023/09/26 05:19:58;;;;;;;16.30;9.80;;;;;;;;;;5058332;28;20074;-38
2023/09/26 05:22:24;;;;;;;13.05;9.00;;;;;;;;;;5055541;28;20086;-39
2023/09/26 05:24:49;;;;;;;17.52;10.38;;;;;;;;;;5059945;28;20032;-39
2023/09/26 05:27:14;;;;;;;15.83;9.57;;;;;;;;;;5056727;28;20036;-39
2023/09/26 05:29:39;;;;;;;16.27;9.70;;;;;;;;;;5056624;28;20836;-38
2023/09/26 05:32:06;;;;;;;12.13;8.53;;;;;;;;;;5062996;28;20278;-38
2023/09/26 05:34:31;;;;;;;11.15;7.93;;;;;;;;;;5059626;28;20290;-38
2023/09/26 05:36:57;;;;;;;13.80;7.47;;;;;;;;;;5059062;28;20024;-38
2023/09/26 05:39:22;;;;;;;9.07;7.40;;;;;;;;;;5059757;28;20078;-39
2023/09/26 05:41:47;;;;;;;9.90;7.13;;;;;;;;;;5058899;28;20633;-38
2023/09/26 05:44:13;;;;;;;95.43;44.53;;;;;;;;;;5056267;28;20089;-38
2023/09/26 05:46:38;;;;;;;20.88;10.15;;;;;;;;;;5060741;28;20032;-39
2023/09/26 05:49:03;;;;;;;15.67;7.07;;;;;;;;;;5059550;28;20036;-39
2023/09/26 05:51:29;;;;;;;10.87;7.10;;;;;;;;;;5059992;28;20956;-39
2023/09/26 05:53:54;;;;;;;13.80;8.05;;;;;;;;;;5061836;28;20287;-37
2023/09/26 05:56:19;;;;;;;13.60;7.85;;;;;;;;;;5058763;28;20032;-37
2023/09/26 05:58:46;;;;;;;52.40;30.25;;;;;;;;;;5057134;28;20036;-37
2023/09/26 06:01:12;;;;;;;31.17;18.48;;;;;;;;;;5058610;28;20034;-37
2023/09/26 06:03:38;;;;;;;30.95;17.60;;;;;;;;;;5057132;28;20020;-37
2023/09/26 06:06:04;;;;;;;18.13;10.07;;;;;;;;;;5059094;28;20574;-37
2023/09/26 06:08:29;;;;;;;16.55;10.50;;;;;;;;;;5059033;28;20024;-39
2023/09/26 06:10:55;;;;;;;14.57;8.65;;;;;;;;;;5065394;28;20031;-38
2023/09/26 06:13:20;;;;;;;13.10;9.02;;;;;;;;;;5058266;28;21191;-39
2023/09/26 06:15:46;;;;;;;16.38;8.55;;;;;;;;;;5058285;28;20031;-39
2023/09/26 06:18:11;;;;;;;7.57;4.73;;;;;;;;;;5061151;28;20028;-37
2023/09/26 06:20:38;;;;;;;13.43;8.68;;;;;;;;;;5060591;28;20275;-38
2023/09/26 06:23:04;;;;;;;14.88;9.25;;;;;;;;;;5056854;28;20032;-38
2023/09/26 06:25:29;;;;;;;15.18;9.10;;;;;;;;;;5057874;28;20025;-37
2023/09/26 06:27:54;;;;;;;15.17;8.80;;;;;;;;;;5061077;28;20037;-37
2023/09/26 06:30:20;;;;;;;13.05;8.88;;;;;;;;;;5060404;28;20847;-37
2023/09/26 06:32:45;;;;;;;15.10;9.30;;;;;;;;;;5059028;28;20028;-37
2023/09/26 06:35:10;;;;;;;18.45;10.48;;;;;;;;;;5055997;28;20505;-37
2023/09/26 06:37:36;;;;;;;18.10;10.05;;;;;;;;;;5058056;28;20024;-37
2023/09/26 06:40:04;;;;;;;8.57;6.00;;;;;;;;;;5056808;28;20835;-37
2023/09/26 06:42:29;;;;;;;17.45;11.38;;;;;;;;;;5057598;28;20637;-36
2023/09/26 06:44:55;;;;;;;16.80;10.00;;;;;;;;;;5058179;28;20494;-37
2023/09/26 06:47:20;;;;;;;19.40;12.73;;;;;;;;;;5045173;28;20040;-39
2023/09/26 06:49:46;;;;;;;17.43;10.20;;;;;;;;;;5059222;28;20103;-38
2023/09/26 06:52:12;;;;;;;22.00;14.05;;;;;;;;;;5054149;28;20028;-39
2023/09/26 06:54:37;;;;;;;31.48;18.73;;;;;;;;;;5059597;28;20024;-39
2023/09/26 06:57:03;;;;;;;25.35;17.35;;;;;;;;;;5056613;28;21182;-39
2023/09/26 06:59:28;;;;;;;19.95;14.13;;;;;;;;;;5059609;28;20107;-39
2023/09/26 07:01:53;;;;;;;19.13;12.87;;;;;;;;;;5060914;28;20032;-39
2023/09/26 07:04:18;;;;;;;22.60;14.55;;;;;;;;;;5056834;28;20081;-40
2023/09/26 07:06:45;;;;;;;21.03;14.00;;;;;;;;;;5056041;28;20025;-40
2023/09/26 07:09:12;;;;;;;22.45;15.05;;;;;;;;;;5056634;28;20317;-39
2023/09/26 07:11:38;;;;;;;34.95;20.40;;;;;;;;;;5061723;28;20028;-39
2023/09/26 07:14:04;;;;;;;29.15;16.63;;;;;;;;;;5058170;28;20036;-39
2023/09/26 07:16:33;;;;;;;24.27;14.88;;;;;;;;;;5057741;28;20488;-39
2023/09/26 07:18:58;;;;;;;27.08;15.38;;;;;;;;;;5061903;28;20032;-38
2023/09/26 07:21:23;;;;;;;24.77;13.80;;;;;;;;;;5061477;28;20025;-40
2023/09/26 07:23:49;;;;;;;20.67;13.70;;;;;;;;;;5059943;28;20071;-40
2023/09/26 07:26:20;;;;;;;30.13;15.77;;;;;;;;;;5053888;28;20291;-39
2023/09/26 07:28:46;;;;;;;22.48;14.63;;;;;;;;;;5058218;28;20170;-39
2023/09/26 07:31:12;;;;;;;24.60;14.85;;;;;;;;;;5055592;28;20028;-39
2023/09/26 07:33:38;;;;;;;25.25;14.07;;;;;;;;;;5058887;28;20009;-40
2023/09/26 07:36:03;;;;;;;21.42;14.55;;;;;;;;;;5058860;28;20029;-39
2023/09/26 07:38:29;;;;;;;22.35;14.10;;;;;;;;;;5059451;28;20056;-40
2023/09/26 07:40:55;;;;;;;22.23;13.50;;;;;;;;;;5056161;28;20028;-40
2023/09/26 07:43:20;;;;;;;22.50;13.90;;;;;;;;;;5050097;28;20028;-37
2023/09/26 07:45:45;;;;;;;22.17;14.43;;;;;;;;;;5055203;28;20036;-39
2023/09/26 07:48:11;;;;;;;19.70;13.30;;;;;;;;;;5057859;28;20486;-40
2023/09/26 07:50:36;;;;;;;24.15;13.57;;;;;;;;;;5058977;28;20278;-39
2023/09/26 07:53:02;;;;;;;23.95;13.80;;;;;;;;;;5057904;28;20021;-39
2023/09/26 07:55:28;;;;;;;33.15;20.25;;;;;;;;;;5055152;28;20112;-39
2023/09/26 07:57:53;;;;;;;25.05;16.75;;;;;;;;;;5059282;28;20044;-40
2023/09/26 08:00:19;;;;;;;27.73;18.10;;;;;;;;;;5040913;28;20126;-39
2023/09/26 08:02:45;;;;;;;29.13;15.88;;;;;;;;;;5042071;28;20283;-39
2023/09/26 08:05:11;;;;;;;28.02;16.00;;;;;;;;;;5063036;28;20074;-39
2023/09/26 08:07:38;;;;;;;23.90;14.15;;;;;;;;;;5065119;28;20052;-39
2023/09/26 08:10:03;;;;;;;28.55;14.75;;;;;;;;;;5065507;28;20025;-39
2023/09/26 08:12:29;;;;;;;22.92;15.52;;;;;;;;;;5066491;28;20031;-39
2023/09/26 08:14:55;;;;;;;25.65;16.70;;;;;;;;;;5065819;28;20025;-39
2023/09/26 08:17:20;;;;;;;16.92;9.75;;;;;;;;;;5065538;28;20031;-39
2023/09/26 08:19:46;;;;;;;37.00;20.43;;;;;;;;;;5063455;28;20104;-39
2023/09/26 08:22:11;;;;;;;37.43;21.37;;;;;;;;;;5063074;28;20274;-40
2023/09/26 08:24:36;;;;;;;50.53;30.37;;;;;;;;;;5063699;28;20258;-39
2023/09/26 08:27:01;;;;;;;37.43;21.30;;;;;;;;;;5050505;28;20060;-38
2023/09/26 08:29:27;;;;;;;30.60;17.85;;;;;;;;;;5062091;28;20021;-40
2023/09/26 08:31:52;;;;;;;29.95;17.45;;;;;;;;;;5064720;28;20039;-37
2023/09/26 08:34:18;;;;;;;30.88;16.83;;;;;;;;;;5065015;28;20040;-37
2023/09/26 08:36:43;;;;;;;27.47;17.17;;;;;;;;;;5063457;28;20127;-38
2023/09/26 08:39:08;;;;;;;30.70;17.30;;;;;;;;;;5063112;28;20353;-37
2023/09/26 08:41:35;;;;;;;32.03;16.98;;;;;;;;;;5063773;28;20366;-37
2023/09/26 08:44:00;;;;;;;31.10;17.75;;;;;;;;;;5065935;28;20028;-37
2023/09/26 08:46:26;;;;;;;28.50;17.42;;;;;;;;;;5056494;28;20024;-37
2023/09/26 08:48:54;;;;;;;33.58;17.90;;;;;;;;;;5063433;28;20052;-37
2023/09/26 08:51:19;;;;;;;27.30;15.77;;;;;;;;;;5061399;28;20017;-38
2023/09/26 08:53:44;;;;;;;29.43;17.73;;;;;;;;;;5063828;28;20563;-37
2023/09/26 08:56:10;;;;;;;34.80;18.40;;;;;;;;;;5064183;28;20327;-37
2023/09/26 08:58:35;;;;;;;39.83;22.40;;;;;;;;;;5064852;28;20032;-37
2023/09/26 09:01:01;;;;;;;36.30;20.95;;;;;;;;;;5059481;28;20028;-40
2023/09/26 09:03:26;;;;;;;30.55;17.60;;;;;;;;;;5061931;28;20020;-37
2023/09/26 09:05:51;;;;;;;34.25;17.67;;;;;;;;;;5063557;28;20042;-38
2023/09/26 13:58:54;;;;;;;10.65;6.32;;;;;;;;;;5050440;28;20093;-39
2023/09/26 14:01:20;;;;;;;12.40;6.50;;;;;;;;;;5066139;28;20028;-39
2023/09/26 14:03:46;;;;;;;12.80;6.43;;;;;;;;;;5070013;28;20987;-38
2023/09/26 14:06:11;;;;;;;10.35;6.63;;;;;;;;;;5072800;28;20489;-39
2023/09/26 14:08:38;;;;;;;10.33;7.03;;;;;;;;;;5066686;28;20550;-39
2023/09/26 14:11:04;;;;;;;12.23;6.50;;;;;;;;;;5067404;28;20032;-39
2023/09/26 14:13:29;;;;;;;12.93;6.25;;;;;;;;;;5069637;28;20553;-38
2023/09/26 14:15:55;;;;;;;10.30;6.82;;;;;;;;;;5070090;28;20032;-38
2023/09/26 14:18:20;;;;;;;12.90;6.20;;;;;;;;;;5074975;28;20032;-39
2023/09/26 14:20:49;;;;;;;10.17;5.83;;;;;;;;;;5076741;28;20028;-39
2023/09/26 14:23:14;;;;;;;12.13;5.78;;;;;;;;;;5074475;28;20024;-39
2023/09/26 14:25:39;;;;;;;8.70;6.00;;;;;;;;;;5076417;28;20032;-39
2023/09/26 14:28:05;;;;;;;12.77;5.53;;;;;;;;;;5066263;28;20087;-39
2023/09/26 14:30:30;;;;;;;10.02;5.40;;;;;;;;;;5068149;28;20032;-39
2023/09/26 14:32:57;;;;;;;13.65;6.20;;;;;;;;;;5072182;28;20028;-39
2023/09/26 14:35:22;;;;;;;8.63;6.13;;;;;;;;;;5067891;28;20028;-39
2023/09/26 14:37:48;;;;;;;12.75;5.47;;;;;;;;;;5074746;28;20044;-39
2023/09/26 14:40:13;;;;;;;12.13;5.63;;;;;;;;;;5078540;28;20059;-39
2023/09/26 14:42:39;;;;;;;13.55;6.00;;;;;;;;;;5076850;28;20270;-39
2023/09/26 14:45:04;;;;;;;12.93;5.80;;;;;;;;;;5073797;28;20478;-39
2023/09/26 14:47:30;;;;;;;8.20;5.40;;;;;;;;;;5075175;28;20411;-39
2023/09/26 14:49:55;;;;;;;9.70;5.97;;;;;;;;;;5074357;28;20411;-39
2023/09/26 14:52:20;;;;;;;11.20;5.40;;;;;;;;;;5079400;28;20020;-39
2023/09/26 14:54:46;;;;;;;10.07;5.40;;;;;;;;;;5081826;28;20128;-39
2023/09/26 14:57:11;;;;;;;8.18;5.45;;;;;;;;;;5079634;28;20262;-39
2023/09/26 14:59:36;;;;;;;14.30;6.23;;;;;;;;;;5078041;28;20027;-38
2023/09/26 15:02:01;;;;;;;11.60;6.57;;;;;;;;;;5074439;28;20108;-38
2023/09/26 15:04:26;;;;;;;12.87;6.47;;;;;;;;;;5073536;28;20095;-39
2023/09/26 15:06:52;;;;;;;9.80;6.03;;;;;;;;;;5074766;28;20031;-39
2023/09/26 15:09:17;;;;;;;8.63;5.90;;;;;;;;;;5080599;28;20055;-39
2023/09/26 15:11:43;;;;;;;9.90;5.73;;;;;;;;;;5076560;28;20111;-39
2023/09/26 15:14:08;;;;;;;9.73;5.80;;;;;;;;;;5078452;28;20020;-39
2023/09/26 15:16:33;;;;;;;9.50;6.37;;;;;;;;;;5073935;28;20036;-38
2023/09/26 15:18:59;;;;;;;11.68;7.55;;;;;;;;;;5074194;28;20042;-38
2023/09/26 15:21:24;;;;;;;26.27;13.37;;;;;;;;;;5071431;28;20031;-39
2023/09/26 15:23:50;;;;;;;15.95;8.75;;;;;;;;;;5077581;28;20415;-39
2023/09/26 15:26:15;;;;;;;12.65;7.20;;;;;;;;;;5078627;28;20035;-39
2023/09/26 15:28:41;;;;;;;12.32;6.57;;;;;;;;;;5077428;28;20025;-38
2023/09/26 15:31:07;;;;;;;10.73;6.28;;;;;;;;;;5077732;28;20025;-39
2023/09/26 15:33:33;;;;;;;11.77;6.97;;;;;;;;;;5075061;28;20544;-39
2023/09/26 15:35:58;;;;;;;11.07;5.80;;;;;;;;;;5075066;28;20020;-39
2023/09/26 15:38:23;;;;;;;15.23;6.93;;;;;;;;;;5070039;28;20634;-38
2023/09/26 15:40:48;;;;;;;8.55;4.82;;;;;;;;;;5071619;28;20274;-39
2023/09/26 15:43:14;;;;;;;12.37;7.97;;;;;;;;;;5074012;28;20035;-39
2023/09/26 15:45:39;;;;;;;14.73;7.43;;;;;;;;;;5071017;28;20312;-39
2023/09/26 15:48:05;;;;;;;13.05;7.30;;;;;;;;;;5071350;28;20020;-39
2023/09/26 15:50:30;;;;;;;23.33;13.43;;;;;;;;;;5074428;28;20063;-39
2023/09/26 15:52:56;;;;;;;27.15;17.80;;;;;;;;;;5070982;28;20123;-39
2023/09/26 15:55:24;;;;;;;22.45;12.18;;;;;;;;;;5070437;28;20031;-39
2023/09/26 15:57:50;;;;;;;15.05;7.57;;;;;;;;;;5063191;28;20049;-39
2023/09/26 16:00:16;;;;;;;13.55;7.85;;;;;;;;;;5066301;28;20024;-39
2023/09/26 16:02:41;;;;;;;17.75;6.93;;;;;;;;;;5069998;28;20036;-38
2023/09/26 16:05:07;;;;;;;14.20;8.18;;;;;;;;;;5070234;28;20379;-39
2023/09/26 16:07:32;;;;;;;19.33;7.80;;;;;;;;;;5069867;28;20048;-38
2023/09/26 16:09:58;;;;;;;14.60;8.35;;;;;;;;;;5071505;28;20120;-39
2023/09/26 16:12:23;;;;;;;16.83;8.97;;;;;;;;;;5050134;28;20041;-39
2023/09/26 16:14:48;;;;;;;18.55;9.57;;;;;;;;;;5069616;28;20067;-38
2023/09/26 16:17:17;;;;;;;19.53;11.20;;;;;;;;;;5072105;28;20027;-38
2023/09/26 16:19:42;;;;;;;19.20;9.98;;;;;;;;;;5067934;28;20051;-38
2023/09/26 16:22:07;;;;;;;16.83;9.23;;;;;;;;;;5065997;28;21275;-39
2023/09/26 16:24:32;;;;;;;13.27;7.93;;;;;;;;;;5070856;28;20120;-38
2023/09/26 16:26:58;;;;;;;38.05;25.02;;;;;;;;;;5052481;28;20028;-38
2023/09/26 16:29:24;;;;;;;40.92;22.33;;;;;;;;;;5070004;28;20078;-38
2023/09/26 16:31:49;;;;;;;17.15;11.05;;;;;;;;;;5065874;28;20557;-38
2023/09/26 16:34:14;;;;;;;21.17;9.90;;;;;;;;;;5073401;28;20390;-38
2023/09/26 16:36:43;;;;;;;18.58;9.95;;;;;;;;;;5069627;28;20281;-38
2023/09/26 16:39:08;;;;;;;22.60;10.07;;;;;;;;;;5073648;28;20558;-38
2023/09/26 16:41:34;;;;;;;113.72;70.05;;;;;;;;;;5072336;28;20032;-38
2023/09/26 16:43:59;;;;;;;85.20;56.63;;;;;;;;;;5074263;28;20035;-38
2023/09/26 16:46:24;;;;;;;43.40;24.73;;;;;;;;;;5070311;28;20651;-38
2023/09/26 16:48:50;;;;;;;21.48;12.68;;;;;;;;;;5057482;28;20314;-38
2023/09/26 16:51:15;;;;;;;15.75;10.43;;;;;;;;;;5073600;28;20064;-38
2023/09/26 16:53:41;;;;;;;13.32;9.15;;;;;;;;;;5071606;28;20056;-38
2023/09/26 16:56:06;;;;;;;16.80;9.70;;;;;;;;;;5069984;28;20189;-38
2023/09/26 16:58:32;;;;;;;15.57;8.80;;;;;;;;;;5072812;28;20025;-38
2023/09/26 17:01:08;;;;;;;21.83;13.57;;;;;;;;;;5070505;28;20275;-38
2023/09/26 17:03:33;;;;;;;50.72;29.20;;;;;;;;;;5066263;28;20074;-38
2023/09/26 17:05:59;;;;;;;20.63;11.65;;;;;;;;;;5070078;28;20023;-38
2023/09/26 17:08:24;;;;;;;21.60;10.97;;;;;;;;;;5072643;28;20024;-38
2023/09/26 17:10:49;;;;;;;20.07;10.93;;;;;;;;;;5050652;28;20298;-38
2023/09/26 17:13:15;;;;;;;16.30;10.13;;;;;;;;;;5068085;28;20032;-38
2023/09/26 17:15:40;;;;;;;16.92;9.23;;;;;;;;;;5071073;28;20277;-38
2023/09/26 17:18:06;;;;;;;17.83;10.13;;;;;;;;;;5088865;28;20046;-38
2023/09/26 17:20:31;;;;;;;27.50;15.95;;;;;;;;;;5093474;28;20072;-38
2023/09/26 17:22:56;;;;;;;138.90;70.47;;;;;;;;;;5094500;28;20027;-38
2023/09/26 17:25:21;;;;;;;38.50;20.17;;;;;;;;;;5092737;28;20736;-38
2023/09/26 17:27:47;;;;;;;24.23;12.80;;;;;;;;;;5091317;28;20032;-38
2023/09/26 17:30:12;;;;;;;38.22;23.45;;;;;;;;;;5095630;28;20497;-38
2023/09/26 17:32:37;;;;;;;46.60;26.08;;;;;;;;;;5091649;28;20693;-38
2023/09/26 17:35:03;;;;;;;18.58;12.15;;;;;;;;;;5094601;28;20020;-38
2023/09/26 17:37:28;;;;;;;20.67;10.63;;;;;;;;;;5092621;28;20034;-39
2023/09/26 17:39:54;;;;;;;19.87;9.87;;;;;;;;;;5096919;28;21462;-38
2023/09/26 17:42:19;;;;;;;21.60;10.47;;;;;;;;;;5091809;28;20276;-39
2023/09/26 17:44:44;;;;;;;14.00;8.63;;;;;;;;;;5089737;28;20036;-39
2023/09/26 17:47:10;;;;;;;23.38;11.52;;;;;;;;;;5093690;28;20296;-38
2023/09/26 17:49:36;;;;;;;21.98;10.43;;;;;;;;;;5095889;28;20027;-38
2023/09/26 17:52:02;;;;;;;19.05;10.43;;;;;;;;;;5093804;28;20024;-38
2023/09/26 17:54:28;;;;;;;17.80;11.20;;;;;;;;;;5093283;28;20062;-38
2023/09/26 17:56:55;;;;;;;23.08;11.05;;;;;;;;;;5100696;28;20104;-39
2023/09/26 17:59:21;;;;;;;20.52;10.65;;;;;;;;;;5096349;28;20032;-38
2023/09/26 18:01:47;;;;;;;15.88;9.82;;;;;;;;;;5087767;28;20027;-39
2023/09/26 18:04:13;;;;;;;16.58;9.50;;;;;;;;;;5091622;28;20047;-38
2023/09/26 18:06:38;;;;;;;16.50;9.73;;;;;;;;;;5072457;28;20024;-38
2023/09/26 18:09:04;;;;;;;17.83;9.18;;;;;;;;;;5089242;28;20028;-38
2023/09/26 18:11:30;;;;;;;16.85;10.65;;;;;;;;;;5091614;28;20038;-38
2023/09/26 18:13:55;;;;;;;16.00;9.60;;;;;;;;;;5090397;28;20024;-39
2023/09/26 18:16:21;;;;;;;19.33;8.97;;;;;;;;;;5087404;28;20030;-38
2023/09/26 18:18:46;;;;;;;28.65;16.20;;;;;;;;;;5087556;28;20107;-38
2023/09/26 18:21:11;;;;;;;32.30;19.50;;;;;;;;;;5087793;28;20032;-38
2023/09/26 18:23:37;;;;;;;71.00;42.30;;;;;;;;;;5093396;28;20019;-38
2023/09/26 18:26:03;;;;;;;27.08;15.85;;;;;;;;;;5090700;28;25368;-39
2023/09/26 18:28:30;;;;;;;17.52;10.55;;;;;;;;;;5091394;28;20464;-38
2023/09/26 18:30:56;;;;;;;16.17;10.70;;;;;;;;;;5092261;28;20027;-39
2023/09/26 18:33:21;;;;;;;19.37;10.77;;;;;;;;;;5089863;28;20084;-38
2023/09/26 18:35:46;;;;;;;17.27;10.23;;;;;;;;;;5092642;28;20274;-38
2023/09/26 18:38:12;;;;;;;19.37;10.60;;;;;;;;;;5089398;28;20032;-38
2023/09/26 18:40:37;;;;;;;17.60;9.98;;;;;;;;;;5088174;28;20078;-38
2023/09/26 18:43:02;;;;;;;18.70;10.17;;;;;;;;;;5093195;28;20122;-38
2023/09/26 18:45:27;;;;;;;22.13;10.55;;;;;;;;;;5091238;28;20304;-39
2023/09/26 18:47:53;;;;;;;20.00;11.95;;;;;;;;;;5090800;28;20118;-38
2023/09/26 18:50:18;;;;;;;15.30;11.10;;;;;;;;;;5099764;28;20521;-38
2023/09/26 18:52:43;;;;;;;19.60;10.27;;;;;;;;;;5093500;28;20266;-38
2023/09/26 18:55:09;;;;;;;18.65;10.63;;;;;;;;;;5091682;28;20273;-39
2023/09/26 18:57:34;;;;;;;11.52;6.40;;;;;;;;;;5092706;28;20050;-39
2023/09/26 19:00:00;;;;;;;16.67;11.07;;;;;;;;;;5095226;28;20402;-38
2023/09/26 19:02:26;;;;;;;17.63;9.73;;;;;;;;;;5096651;28;20262;-38
2023/09/26 19:04:51;;;;;;;21.53;10.53;;;;;;;;;;5094483;28;20031;-38
2023/09/26 19:07:16;;;;;;;15.87;10.17;;;;;;;;;;5094714;28;20359;-38